createdAt,value
2022-08-04T00:00:02.830Z,0.00
2022-08-04T00:01:02.882Z,0.00
2022-08-04T00:02:02.958Z,0.00
2022-08-04T00:03:02.901Z,0.00
2022-08-04T00:04:02.925Z,0.00
2022-08-04T00:05:02.953Z,0.00
2022-08-04T00:06:02.970Z,0.00
2022-08-04T00:07:02.996Z,0.00
2022-08-04T00:08:03.017Z,0.00
2022-08-04T00:09:03.040Z,0.00
2022-08-04T00:10:03.068Z,0.00
2022-08-04T00:11:03.086Z,0.00
2022-08-04T00:12:03.111Z,0.00
2022-08-04T00:13:03.146Z,0.00
2022-08-04T00:14:03.871Z,0.00
2022-08-04T00:15:03.185Z,0.00
2022-08-04T00:16:03.204Z,0.00
2022-08-04T00:17:03.229Z,0.00
2022-08-04T00:18:03.259Z,0.00
2022-08-04T00:19:03.274Z,0.00
2022-08-04T00:20:03.301Z,0.00
2022-08-04T00:21:03.323Z,0.00
2022-08-04T00:22:03.346Z,0.00
2022-08-04T00:23:03.369Z,0.00
2022-08-04T00:24:10.986Z,0.00
2022-08-04T00:25:03.419Z,0.00
2022-08-04T00:26:03.440Z,0.00
2022-08-04T00:27:03.465Z,0.00
2022-08-04T00:28:03.486Z,0.00
2022-08-04T00:29:03.510Z,0.00
2022-08-04T00:30:03.535Z,0.00
2022-08-04T00:31:03.560Z,0.00
2022-08-04T00:32:03.581Z,0.00
2022-08-04T00:33:03.604Z,0.00
2022-08-04T00:34:03.631Z,0.00
2022-08-04T00:35:03.651Z,0.00
2022-08-04T00:36:03.674Z,0.00
2022-08-04T00:37:03.701Z,0.00
2022-08-04T00:38:03.723Z,0.00
2022-08-04T00:39:03.787Z,0.00
2022-08-04T00:40:03.770Z,0.00
2022-08-04T00:41:03.794Z,0.00
2022-08-04T00:42:03.816Z,0.00
2022-08-04T00:43:03.840Z,0.00
2022-08-04T00:44:03.864Z,0.00
2022-08-04T00:45:03.890Z,0.00
2022-08-04T00:46:16.180Z,0.00
2022-08-04T00:47:03.933Z,0.00
2022-08-04T00:48:03.959Z,0.00
2022-08-04T00:49:03.994Z,0.00
2022-08-04T00:50:04.006Z,0.00
2022-08-04T00:51:04.027Z,0.00
2022-08-04T00:52:31.326Z,0.00
2022-08-04T00:53:04.074Z,0.00
2022-08-04T00:54:04.100Z,0.00
2022-08-04T00:55:07.055Z,0.00
2022-08-04T00:56:04.145Z,0.00
2022-08-04T00:57:04.171Z,0.00
2022-08-04T00:58:04.194Z,0.00
2022-08-04T00:59:04.215Z,0.00
2022-08-04T01:00:04.239Z,0.00
2022-08-04T01:01:04.282Z,0.00
2022-08-04T01:02:04.285Z,0.00
2022-08-04T01:03:04.312Z,0.00
2022-08-04T01:04:04.341Z,0.00
2022-08-04T01:05:04.356Z,0.00
2022-08-04T01:06:04.380Z,0.00
2022-08-04T01:07:04.405Z,0.00
2022-08-04T01:08:04.427Z,0.00
2022-08-04T01:09:04.449Z,0.00
2022-08-04T01:10:04.475Z,0.00
2022-08-04T01:11:04.497Z,0.00
2022-08-04T01:12:04.523Z,0.00
2022-08-04T01:13:08.279Z,0.00
2022-08-04T01:14:04.568Z,0.00
2022-08-04T01:15:04.591Z,0.00
2022-08-04T01:16:04.620Z,0.00
2022-08-04T01:17:04.641Z,0.00
2022-08-04T01:18:04.662Z,0.00
2022-08-04T01:19:04.684Z,0.00
2022-08-04T01:20:04.725Z,0.00
2022-08-04T01:21:04.731Z,0.00
2022-08-04T01:22:04.755Z,0.00
2022-08-04T01:23:04.778Z,0.00
2022-08-04T01:24:04.803Z,0.00
2022-08-04T01:25:06.766Z,0.00
2022-08-04T01:26:09.722Z,0.00
2022-08-04T01:27:04.871Z,0.00
2022-08-04T01:28:04.894Z,0.00
2022-08-04T01:29:04.921Z,0.00
2022-08-04T01:30:04.944Z,0.00
2022-08-04T01:31:04.963Z,0.00
2022-08-04T01:32:04.992Z,0.00
2022-08-04T01:33:05.030Z,0.00
2022-08-04T01:34:05.097Z,0.00
2022-08-04T01:35:05.061Z,0.00
2022-08-04T01:36:05.100Z,0.00
2022-08-04T01:37:05.105Z,0.00
2022-08-04T01:38:19.187Z,0.00
2022-08-04T01:39:05.220Z,0.00
2022-08-04T01:40:05.173Z,0.00
2022-08-04T01:41:05.200Z,0.00
2022-08-04T01:42:05.220Z,0.00
2022-08-04T01:43:05.244Z,0.00
2022-08-04T01:44:05.267Z,0.00
2022-08-04T01:45:05.296Z,0.00
2022-08-04T01:46:05.314Z,0.00
2022-08-04T01:47:05.336Z,0.00
2022-08-04T01:48:05.362Z,0.00
2022-08-04T01:49:05.383Z,0.00
2022-08-04T01:50:05.408Z,0.00
2022-08-04T01:51:05.435Z,0.00
2022-08-04T01:52:05.451Z,0.00
2022-08-04T01:53:05.475Z,0.00
2022-08-04T01:54:05.498Z,0.00
2022-08-04T01:55:05.520Z,0.00
2022-08-04T01:56:05.546Z,0.00
2022-08-04T01:57:37.674Z,0.00
2022-08-04T01:58:05.591Z,0.00
2022-08-04T01:59:05.614Z,0.00
2022-08-04T02:00:05.641Z,0.00
2022-08-04T02:01:08.722Z,0.00
2022-08-04T02:02:05.776Z,0.00
2022-08-04T02:03:05.742Z,0.00
2022-08-04T02:04:21.747Z,0.00
2022-08-04T02:05:05.754Z,0.00
2022-08-04T02:06:05.776Z,0.00
2022-08-04T02:07:05.800Z,0.00
2022-08-04T02:08:05.835Z,0.00
2022-08-04T02:09:05.846Z,0.00
2022-08-04T02:10:05.870Z,0.00
2022-08-04T02:11:05.890Z,0.00
2022-08-04T02:12:05.914Z,0.00
2022-08-04T02:13:05.937Z,0.00
2022-08-04T02:14:05.960Z,0.00
2022-08-04T02:15:05.991Z,0.00
2022-08-04T02:16:06.006Z,0.00
2022-08-04T02:17:06.029Z,0.00
2022-08-04T02:18:06.072Z,0.00
2022-08-04T02:19:06.077Z,0.00
2022-08-04T02:20:06.101Z,0.00
2022-08-04T02:21:06.121Z,0.00
2022-08-04T02:22:06.148Z,0.00
2022-08-04T02:23:06.167Z,0.00
2022-08-04T02:24:06.192Z,0.00
2022-08-04T02:25:06.214Z,0.00
2022-08-04T02:26:06.235Z,0.00
2022-08-04T02:27:06.260Z,0.00
2022-08-04T02:28:06.285Z,0.00
2022-08-04T02:29:06.304Z,0.00
2022-08-04T02:30:06.330Z,0.00
2022-08-04T02:31:06.351Z,0.00
2022-08-04T02:32:06.381Z,0.00
2022-08-04T02:33:06.398Z,0.00
2022-08-04T02:34:06.419Z,0.00
2022-08-04T02:35:06.442Z,0.00
2022-08-04T02:36:06.465Z,0.00
2022-08-04T02:37:06.489Z,0.00
2022-08-04T02:38:06.511Z,0.00
2022-08-04T02:39:06.604Z,0.00
2022-08-04T02:40:06.561Z,0.00
2022-08-04T02:41:06.583Z,0.00
2022-08-04T02:42:06.601Z,0.00
2022-08-04T02:43:06.624Z,0.00
2022-08-04T02:44:06.648Z,0.00
2022-08-04T02:45:06.669Z,0.00
2022-08-04T02:46:17.976Z,0.00
2022-08-04T02:47:06.715Z,0.00
2022-08-04T02:48:30.557Z,0.00
2022-08-04T02:49:06.761Z,0.00
2022-08-04T02:50:06.785Z,0.00
2022-08-04T02:51:06.806Z,0.00
2022-08-04T02:52:06.830Z,4.00
2022-08-04T02:53:09.915Z,4.00
2022-08-04T02:54:06.879Z,4.00
2022-08-04T02:55:06.897Z,0.00
2022-08-04T02:56:06.921Z,4.00
2022-08-04T02:57:08.325Z,4.00
2022-08-04T02:58:06.968Z,4.00
2022-08-04T02:59:06.989Z,8.00
2022-08-04T03:00:07.024Z,4.00
2022-08-04T03:01:07.086Z,8.00
2022-08-04T03:02:07.059Z,8.00
2022-08-04T03:03:07.080Z,8.00
2022-08-04T03:04:07.100Z,12.00
2022-08-04T03:05:07.123Z,12.00
2022-08-04T03:06:10.451Z,12.00
2022-08-04T03:07:07.168Z,12.00
2022-08-04T03:08:07.190Z,16.00
2022-08-04T03:09:07.214Z,16.00
2022-08-04T03:10:07.240Z,20.00
2022-08-04T03:11:07.259Z,28.00
2022-08-04T03:12:07.282Z,28.00
2022-08-04T03:13:07.306Z,32.00
2022-08-04T03:14:08.095Z,36.00
2022-08-04T03:15:07.349Z,44.00
2022-08-04T03:16:07.370Z,48.00
2022-08-04T03:17:07.394Z,52.00
2022-08-04T03:18:07.423Z,60.00
2022-08-04T03:19:07.436Z,64.00
2022-08-04T03:20:07.461Z,76.00
2022-08-04T03:21:07.484Z,84.00
2022-08-04T03:22:07.510Z,92.00
2022-08-04T03:23:13.523Z,108.00
2022-08-04T03:24:07.552Z,116.00
2022-08-04T03:25:07.576Z,128.00
2022-08-04T03:26:07.596Z,140.00
2022-08-04T03:27:07.619Z,156.00
2022-08-04T03:28:07.641Z,172.00
2022-08-04T03:29:07.666Z,188.00
2022-08-04T03:30:07.690Z,204.00
2022-08-04T03:31:07.708Z,224.00
2022-08-04T03:32:07.736Z,244.00
2022-08-04T03:33:07.753Z,264.00
2022-08-04T03:34:07.776Z,288.00
2022-08-04T03:35:07.801Z,308.00
2022-08-04T03:36:07.821Z,328.00
2022-08-04T03:37:07.847Z,356.00
2022-08-04T03:38:07.868Z,376.00
2022-08-04T03:39:07.905Z,400.00
2022-08-04T03:40:10.907Z,428.00
2022-08-04T03:41:07.933Z,460.00
2022-08-04T03:42:08.396Z,492.00
2022-08-04T03:43:07.982Z,524.00
2022-08-04T03:44:08.003Z,560.00
2022-08-04T03:45:23.605Z,592.00
2022-08-04T03:46:08.047Z,628.00
2022-08-04T03:47:08.070Z,660.00
2022-08-04T03:48:08.089Z,692.00
2022-08-04T03:49:08.116Z,728.00
2022-08-04T03:50:08.135Z,764.00
2022-08-04T03:51:08.160Z,796.00
2022-08-04T03:52:08.178Z,828.00
2022-08-04T03:53:08.205Z,864.00
2022-08-04T03:54:08.225Z,900.00
2022-08-04T03:55:08.247Z,932.00
2022-08-04T03:56:08.874Z,972.00
2022-08-04T03:57:08.290Z,1004.00
2022-08-04T03:58:08.317Z,1036.00
2022-08-04T03:59:08.341Z,1072.00
2022-08-04T04:00:08.359Z,1108.00
2022-08-04T04:01:08.380Z,1144.00
2022-08-04T04:02:08.442Z,1180.00
2022-08-04T04:03:08.426Z,1216.00
2022-08-04T04:04:08.450Z,1252.00
2022-08-04T04:05:08.467Z,1284.00
2022-08-04T04:06:10.889Z,1324.00
2022-08-04T04:07:08.514Z,1360.00
2022-08-04T04:08:10.733Z,1396.00
2022-08-04T04:09:16.047Z,1428.00
2022-08-04T04:10:08.582Z,1468.00
2022-08-04T04:11:08.602Z,1500.00
2022-08-04T04:12:08.629Z,1536.00
2022-08-04T04:13:08.648Z,1572.00
2022-08-04T04:14:08.672Z,1612.00
2022-08-04T04:15:08.695Z,1644.00
2022-08-04T04:16:08.717Z,1672.00
2022-08-04T04:17:08.737Z,1696.00
2022-08-04T04:18:08.759Z,1716.00
2022-08-04T04:19:08.783Z,1740.00
2022-08-04T04:20:08.808Z,1768.00
2022-08-04T04:21:08.830Z,1804.00
2022-08-04T04:22:08.852Z,1836.00
2022-08-04T04:23:10.358Z,1868.00
2022-08-04T04:24:08.898Z,1896.00
2022-08-04T04:25:08.920Z,1916.00
2022-08-04T04:26:08.950Z,1932.00
2022-08-04T04:27:08.976Z,1956.00
2022-08-04T04:28:45.866Z,1980.00
2022-08-04T04:29:09.007Z,2024.00
2022-08-04T04:30:09.028Z,2064.00
2022-08-04T04:31:09.050Z,2108.00
2022-08-04T04:32:09.073Z,2144.00
2022-08-04T04:33:09.100Z,2180.00
2022-08-04T04:34:09.121Z,2204.00
2022-08-04T04:35:09.139Z,2212.00
2022-08-04T04:36:09.162Z,2228.00
2022-08-04T04:37:09.186Z,2240.00
2022-08-04T04:38:09.213Z,2256.00
2022-08-04T04:39:09.326Z,2276.00
2022-08-04T04:40:09.251Z,2300.00
2022-08-04T04:41:09.273Z,2320.00
2022-08-04T04:42:09.306Z,2348.00
2022-08-04T04:43:09.327Z,2372.00
2022-08-04T04:44:09.340Z,2396.00
2022-08-04T04:45:09.366Z,2420.00
2022-08-04T04:46:10.241Z,2444.00
2022-08-04T04:47:09.408Z,2464.00
2022-08-04T04:48:10.797Z,2488.00
2022-08-04T04:49:09.455Z,2508.00
2022-08-04T04:50:09.475Z,2528.00
2022-08-04T04:51:09.498Z,2548.00
2022-08-04T04:52:09.522Z,2564.00
2022-08-04T04:53:09.545Z,2588.00
2022-08-04T04:54:09.576Z,2604.00
2022-08-04T04:55:09.588Z,2624.00
2022-08-04T04:56:09.610Z,2644.00
2022-08-04T04:57:09.636Z,2668.00
2022-08-04T04:58:09.668Z,2688.00
2022-08-04T04:59:09.678Z,2712.00
2022-08-04T05:00:09.702Z,2732.00
2022-08-04T05:01:09.733Z,2756.00
2022-08-04T05:02:09.744Z,2780.00
2022-08-04T05:03:09.768Z,2800.00
2022-08-04T05:04:09.789Z,2816.00
2022-08-04T05:05:09.812Z,2840.00
2022-08-04T05:06:09.849Z,2860.00
2022-08-04T05:07:09.860Z,2884.00
2022-08-04T05:08:44.622Z,2908.00
2022-08-04T05:09:09.910Z,2936.00
2022-08-04T05:10:09.926Z,2964.00
2022-08-04T05:11:09.950Z,2984.00
2022-08-04T05:14:32.885Z,3004.00
2022-08-04T05:14:35.069Z,3048.00
2022-08-04T05:14:37.626Z,3024.00
2022-08-04T05:15:10.039Z,3076.00
2022-08-04T05:16:10.060Z,3096.00
2022-08-04T05:17:10.083Z,3120.00
2022-08-04T05:18:10.106Z,3152.00
2022-08-04T05:19:10.128Z,3176.00
2022-08-04T05:20:10.163Z,3200.00
2022-08-04T05:21:10.176Z,3224.00
2022-08-04T05:22:14.142Z,3244.00
2022-08-04T05:23:10.219Z,3268.00
2022-08-04T05:24:10.241Z,3288.00
2022-08-04T05:25:10.265Z,3304.00
2022-08-04T05:26:10.292Z,3320.00
2022-08-04T05:27:10.320Z,3344.00
2022-08-04T05:28:10.333Z,3372.00
2022-08-04T05:29:10.367Z,3388.00
2022-08-04T05:30:10.376Z,3416.00
2022-08-04T05:31:10.401Z,3444.00
2022-08-04T05:32:10.426Z,3472.00
2022-08-04T05:33:10.448Z,3500.00
2022-08-04T05:34:10.471Z,3608.00
2022-08-04T05:35:10.493Z,4680.00
2022-08-04T05:36:19.160Z,5460.00
2022-08-04T05:37:10.546Z,3808.00
2022-08-04T05:38:10.568Z,4096.00
2022-08-04T05:39:10.636Z,4556.00
2022-08-04T05:40:10.610Z,9272.00
2022-08-04T05:41:10.634Z,17312.00
2022-08-04T05:42:10.654Z,18944.00
2022-08-04T05:43:10.678Z,22464.00
2022-08-04T05:44:10.699Z,28192.00
2022-08-04T05:45:10.728Z,26464.00
2022-08-04T05:46:10.745Z,17664.00
2022-08-04T05:47:10.773Z,7148.00
2022-08-04T05:48:10.792Z,7776.00
2022-08-04T05:49:10.826Z,19456.00
2022-08-04T05:50:10.848Z,18592.00
2022-08-04T05:51:10.890Z,11344.00
2022-08-04T05:52:10.901Z,8280.00
2022-08-04T05:53:10.913Z,7392.00
2022-08-04T05:54:10.937Z,6676.00
2022-08-04T05:55:10.962Z,5868.00
2022-08-04T05:56:10.983Z,5520.00
2022-08-04T05:57:11.009Z,4684.00
2022-08-04T05:58:11.034Z,4208.00
2022-08-04T05:59:11.059Z,4244.00
2022-08-04T06:00:38.818Z,4336.00
2022-08-04T06:01:11.111Z,4844.00
2022-08-04T06:02:11.174Z,4856.00
2022-08-04T06:03:11.155Z,5044.00
2022-08-04T06:04:11.580Z,7060.00
2022-08-04T06:05:11.203Z,8388.00
2022-08-04T06:06:11.226Z,12096.00
2022-08-04T06:07:11.284Z,15596.00
2022-08-04T06:08:13.670Z,14808.00
2022-08-04T06:09:11.300Z,13524.00
2022-08-04T06:10:11.325Z,12176.00
2022-08-04T06:11:11.348Z,9364.00
2022-08-04T06:12:11.394Z,7132.00
2022-08-04T06:13:47.885Z,5620.00
2022-08-04T06:14:11.423Z,5392.00
2022-08-04T06:15:11.447Z,5400.00
2022-08-04T06:16:17.903Z,7312.00
2022-08-04T06:17:18.397Z,10176.00
2022-08-04T06:18:32.989Z,8496.00
2022-08-04T06:20:00.218Z,9148.00
2022-08-04T06:20:20.057Z,8336.00
2022-08-04T06:21:16.217Z,7376.00
2022-08-04T06:22:11.770Z,7568.00
2022-08-04T06:23:11.644Z,10784.00
2022-08-04T06:24:11.669Z,19360.00
2022-08-04T06:25:11.695Z,22752.00
2022-08-04T06:26:11.720Z,18304.00
2022-08-04T06:27:11.743Z,16200.00
2022-08-04T06:28:11.771Z,14484.00
2022-08-04T06:29:11.794Z,17536.00
2022-08-04T06:30:11.820Z,23712.00
2022-08-04T06:32:30.443Z,27680.00
2022-08-04T06:32:30.522Z,23680.00
2022-08-04T06:33:11.896Z,31456.00
2022-08-04T06:34:11.922Z,37056.00
2022-08-04T06:35:11.944Z,44160.00
2022-08-04T06:36:11.972Z,43712.00
2022-08-04T06:37:11.999Z,43104.00
2022-08-04T06:38:12.025Z,43072.00
2022-08-04T06:39:12.087Z,43104.00
2022-08-04T06:40:30.713Z,42528.00
2022-08-04T06:41:12.112Z,42176.00
2022-08-04T06:42:21.687Z,42400.00
2022-08-04T06:43:12.157Z,42816.00
2022-08-04T06:44:12.186Z,41760.00
2022-08-04T06:45:12.213Z,42528.00
2022-08-04T06:46:12.242Z,44384.00
2022-08-04T06:47:13.858Z,42944.00
2022-08-04T06:48:12.298Z,42272.00
2022-08-04T06:49:12.326Z,40832.00
2022-08-04T06:51:29.518Z,37280.00
2022-08-04T06:51:32.632Z,39200.00
2022-08-04T06:52:12.412Z,43616.00
2022-08-04T06:53:12.443Z,41440.00
2022-08-04T06:54:12.469Z,37504.00
2022-08-04T06:55:12.500Z,36032.00
2022-08-04T06:56:12.524Z,39168.00
2022-08-04T06:57:12.560Z,39680.00
2022-08-04T06:58:12.590Z,44224.00
2022-08-04T06:59:12.616Z,42176.00
2022-08-04T07:00:12.647Z,41856.00
2022-08-04T07:01:12.676Z,40832.00
2022-08-04T07:02:12.800Z,36288.00
2022-08-04T07:03:12.740Z,33984.00
2022-08-04T07:04:12.777Z,32768.00
2022-08-04T07:05:12.797Z,31968.00
2022-08-04T07:06:14.640Z,31584.00
2022-08-04T07:07:12.929Z,31360.00
2022-08-04T07:08:12.888Z,31232.00
2022-08-04T07:09:12.919Z,31232.00
2022-08-04T07:10:12.951Z,31584.00
2022-08-04T07:11:12.983Z,31616.00
2022-08-04T07:12:13.012Z,31424.00
2022-08-04T07:13:13.045Z,31424.00
2022-08-04T07:14:13.078Z,31328.00
2022-08-04T07:15:14.259Z,31264.00
2022-08-04T07:16:13.140Z,31456.00
2022-08-04T07:17:13.227Z,31616.00
2022-08-04T07:18:13.204Z,31808.00
2022-08-04T07:19:17.204Z,32224.00
2022-08-04T07:20:13.269Z,32384.00
2022-08-04T07:21:13.300Z,32480.00
2022-08-04T07:22:18.038Z,32736.00
2022-08-04T07:23:13.366Z,33120.00
2022-08-04T07:24:13.399Z,33792.00
2022-08-04T07:25:13.434Z,34752.00
2022-08-04T07:26:13.659Z,34496.00
2022-08-04T07:27:13.519Z,34016.00
2022-08-04T07:28:13.530Z,33408.00
2022-08-04T07:29:13.561Z,33632.00
2022-08-04T07:30:13.596Z,33984.00
2022-08-04T07:31:34.325Z,33824.00
2022-08-04T07:32:13.662Z,34400.00
2022-08-04T07:33:13.697Z,34816.00
2022-08-04T07:34:21.013Z,35488.00
2022-08-04T07:36:04.546Z,35680.00
2022-08-04T07:36:13.797Z,36192.00
2022-08-04T07:37:13.845Z,36512.00
2022-08-04T07:38:13.864Z,36832.00
2022-08-04T07:39:26.439Z,37248.00
2022-08-04T07:40:13.930Z,37504.00
2022-08-04T07:42:13.999Z,34912.00
2022-08-04T07:43:14.030Z,36928.00
2022-08-04T07:44:14.065Z,36768.00
2022-08-04T07:45:14.100Z,37408.00
2022-08-04T07:46:14.133Z,36032.00
2022-08-04T07:47:14.240Z,37376.00
2022-08-04T07:48:14.204Z,39104.00
2022-08-04T07:49:55.373Z,39456.00
2022-08-04T07:50:14.271Z,40032.00
2022-08-04T07:51:14.307Z,40256.00
2022-08-04T07:52:14.340Z,40320.00
2022-08-04T07:53:53.326Z,40448.00
2022-08-04T07:54:14.411Z,40416.00
2022-08-04T07:55:14.442Z,40736.00
2022-08-04T07:56:14.476Z,40864.00
2022-08-04T07:57:19.208Z,41120.00
2022-08-04T07:58:14.546Z,41184.00
2022-08-04T07:59:14.580Z,41376.00
2022-08-04T08:00:14.618Z,41408.00
2022-08-04T08:01:14.653Z,41504.00
2022-08-04T08:02:14.687Z,41920.00
2022-08-04T08:03:14.782Z,42048.00
2022-08-04T08:04:14.755Z,42144.00
2022-08-04T08:05:14.798Z,42400.00
2022-08-04T08:06:21.066Z,42656.00
2022-08-04T08:07:14.865Z,42816.00
2022-08-04T08:08:14.895Z,43040.00
2022-08-04T08:09:15.014Z,42816.00
2022-08-04T08:10:14.968Z,43648.00
2022-08-04T08:11:15.000Z,43648.00
2022-08-04T08:12:36.576Z,43488.00
2022-08-04T08:13:15.072Z,44064.00
2022-08-04T08:14:15.108Z,44192.00
2022-08-04T08:15:15.889Z,44224.00
2022-08-04T08:16:15.179Z,44448.00
2022-08-04T08:17:15.221Z,44672.00
2022-08-04T08:18:15.251Z,44864.00
2022-08-04T08:19:15.284Z,44928.00
2022-08-04T08:20:15.321Z,44960.00
2022-08-04T08:21:15.357Z,45216.00
2022-08-04T08:22:15.394Z,44928.00
2022-08-04T08:23:15.435Z,42240.00
2022-08-04T08:24:15.465Z,37824.00
2022-08-04T08:25:15.514Z,36096.00
2022-08-04T08:26:15.538Z,35296.00
2022-08-04T08:27:15.573Z,34816.00
2022-08-04T08:28:15.606Z,34464.00
2022-08-04T08:29:15.648Z,34304.00
2022-08-04T08:30:15.684Z,33760.00
2022-08-04T08:31:15.711Z,32544.00
2022-08-04T08:32:15.758Z,27360.00
2022-08-04T08:33:15.785Z,15208.00
2022-08-04T08:34:21.669Z,8264.00
2022-08-04T08:35:15.853Z,12748.00
2022-08-04T08:36:15.886Z,25120.00
2022-08-04T08:37:15.922Z,31392.00
2022-08-04T08:38:15.957Z,31136.00
2022-08-04T08:39:16.041Z,30976.00
2022-08-04T08:40:16.024Z,30112.00
2022-08-04T08:41:16.057Z,29696.00
2022-08-04T08:42:16.091Z,28736.00
2022-08-04T08:44:00.491Z,27520.00
2022-08-04T08:44:19.340Z,26208.00
2022-08-04T08:45:17.902Z,25088.00
2022-08-04T08:46:17.435Z,23456.00
2022-08-04T08:47:16.258Z,22848.00
2022-08-04T08:48:16.290Z,22848.00
2022-08-04T08:50:02.048Z,18368.00
2022-08-04T08:50:16.355Z,11168.00
2022-08-04T08:51:16.409Z,8264.00
2022-08-04T08:52:16.420Z,13024.00
2022-08-04T08:53:16.453Z,19296.00
2022-08-04T08:54:16.485Z,19936.00
2022-08-04T08:55:16.519Z,20736.00
2022-08-04T08:56:16.559Z,21504.00
2022-08-04T08:57:16.593Z,21792.00
2022-08-04T08:58:16.612Z,22080.00
2022-08-04T08:59:16.645Z,22464.00
2022-08-04T09:00:16.690Z,22656.00
2022-08-04T09:01:16.750Z,23104.00
2022-08-04T09:02:16.747Z,23808.00
2022-08-04T09:03:16.774Z,24000.00
2022-08-04T09:04:23.869Z,24512.00
2022-08-04T09:05:16.835Z,25120.00
2022-08-04T09:06:16.867Z,25952.00
2022-08-04T09:07:16.904Z,26432.00
2022-08-04T09:08:16.928Z,27040.00
2022-08-04T09:09:16.974Z,27808.00
2022-08-04T09:10:16.993Z,28608.00
2022-08-04T09:11:17.024Z,29408.00
2022-08-04T09:12:19.220Z,30112.00
2022-08-04T09:13:17.086Z,30880.00
2022-08-04T09:14:17.118Z,31936.00
2022-08-04T09:15:17.150Z,32960.00
2022-08-04T09:16:17.181Z,33632.00
2022-08-04T09:17:17.211Z,34912.00
2022-08-04T09:18:17.245Z,35936.00
2022-08-04T09:19:17.705Z,36896.00
2022-08-04T09:20:17.309Z,38144.00
2022-08-04T09:21:17.345Z,39168.00
2022-08-04T09:22:17.371Z,40288.00
2022-08-04T09:23:17.401Z,41504.00
2022-08-04T09:24:36.715Z,42688.00
2022-08-04T09:25:17.465Z,44192.00
2022-08-04T09:26:17.493Z,44864.00
2022-08-04T09:27:17.528Z,46080.00
2022-08-04T09:28:31.679Z,47168.00
2022-08-04T09:29:17.591Z,46304.00
2022-08-04T09:30:17.620Z,34784.00
2022-08-04T09:31:17.661Z,15176.00
2022-08-04T09:32:17.683Z,14776.00
2022-08-04T09:33:17.716Z,35744.00
2022-08-04T09:34:17.749Z,52960.00
2022-08-04T09:35:17.778Z,55424.00
2022-08-04T09:36:25.753Z,55904.00
2022-08-04T09:37:17.845Z,56608.00
2022-08-04T09:38:17.877Z,56480.00
2022-08-04T09:39:17.982Z,52896.00
2022-08-04T09:40:31.350Z,52896.00
2022-08-04T09:41:30.063Z,56352.00
2022-08-04T09:42:18.003Z,57280.00
2022-08-04T09:43:18.218Z,56832.00
2022-08-04T09:44:49.830Z,56832.00
2022-08-04T09:45:21.277Z,55008.00
2022-08-04T09:46:18.138Z,52992.00
2022-08-04T09:47:18.173Z,52928.00
2022-08-04T09:48:18.208Z,55584.00
2022-08-04T09:49:18.236Z,55680.00
2022-08-04T09:50:18.270Z,56736.00
2022-08-04T09:51:18.301Z,56672.00
2022-08-04T09:52:18.337Z,54208.00
2022-08-04T09:53:18.369Z,53376.00
2022-08-04T09:54:30.497Z,49248.00
2022-08-04T09:55:18.438Z,38624.00
2022-08-04T09:56:18.471Z,28928.00
2022-08-04T09:57:18.507Z,35232.00
2022-08-04T09:58:18.540Z,50272.00
2022-08-04T09:59:18.581Z,59296.00
2022-08-04T10:00:18.618Z,58656.00
2022-08-04T10:01:22.838Z,45472.00
2022-08-04T10:02:18.718Z,34336.00
2022-08-04T10:03:20.370Z,27936.00
2022-08-04T10:04:18.752Z,36928.00
2022-08-04T10:05:18.786Z,49920.00
2022-08-04T10:06:18.891Z,55680.00
2022-08-04T10:07:18.859Z,52352.00
2022-08-04T10:08:18.897Z,36640.00
2022-08-04T10:09:18.932Z,19552.00
2022-08-04T10:10:18.968Z,13728.00
2022-08-04T10:11:19.003Z,22848.00
2022-08-04T10:12:19.039Z,40864.00
2022-08-04T10:13:19.079Z,56672.00
2022-08-04T10:14:22.772Z,60832.00
2022-08-04T10:15:19.149Z,61952.00
2022-08-04T10:16:19.267Z,61856.00
2022-08-04T10:17:19.400Z,61056.00
2022-08-04T10:18:19.259Z,62048.00
2022-08-04T10:19:19.297Z,61120.00
2022-08-04T10:20:44.774Z,60736.00
2022-08-04T10:21:19.371Z,61312.00
2022-08-04T10:22:30.688Z,61312.00
2022-08-04T10:23:19.456Z,61312.00
2022-08-04T10:24:19.484Z,61408.00
2022-08-04T10:26:03.598Z,61728.00
2022-08-04T10:26:19.561Z,61056.00
2022-08-04T10:27:19.763Z,60704.00
2022-08-04T10:28:19.642Z,60416.00
2022-08-04T10:29:19.682Z,60640.00
2022-08-04T10:30:19.719Z,60032.00
2022-08-04T10:31:19.762Z,60320.00
2022-08-04T10:32:19.799Z,59968.00
2022-08-04T10:33:19.839Z,60000.00
2022-08-04T10:34:19.880Z,58080.00
2022-08-04T10:35:19.919Z,59296.00
2022-08-04T10:36:19.957Z,59424.00
2022-08-04T10:37:20.266Z,59072.00
2022-08-04T10:38:23.999Z,59168.00
2022-08-04T10:39:42.279Z,59296.00
2022-08-04T10:40:20.123Z,55712.00
2022-08-04T10:41:20.167Z,57696.00
2022-08-04T10:42:20.205Z,58944.00
2022-08-04T10:43:20.859Z,57888.00
2022-08-04T10:44:20.288Z,57696.00
2022-08-04T10:45:20.331Z,58752.00
2022-08-04T10:46:20.372Z,54752.00
2022-08-04T10:47:20.661Z,58496.00
2022-08-04T10:48:34.159Z,59072.00
2022-08-04T10:49:21.612Z,57408.00
2022-08-04T10:50:20.538Z,55232.00
2022-08-04T10:51:20.584Z,57056.00
2022-08-04T10:52:20.622Z,59424.00
2022-08-04T10:53:20.665Z,57152.00
2022-08-04T10:54:20.710Z,57280.00
2022-08-04T10:55:20.748Z,56640.00
2022-08-04T10:56:20.792Z,55360.00
2022-08-04T10:57:21.070Z,53760.00
2022-08-04T10:58:20.873Z,51360.00
2022-08-04T10:59:20.914Z,53472.00
2022-08-04T11:00:20.960Z,48800.00
2022-08-04T11:01:59.551Z,50784.00
2022-08-04T11:02:21.045Z,52160.00
2022-08-04T11:03:21.177Z,50688.00
2022-08-04T11:04:27.083Z,53696.00
2022-08-04T11:05:21.171Z,57152.00
2022-08-04T11:06:21.213Z,56160.00
2022-08-04T11:07:21.424Z,57792.00
2022-08-04T11:08:21.627Z,57696.00
2022-08-04T11:09:21.339Z,57120.00
2022-08-04T11:10:21.381Z,60128.00
2022-08-04T11:11:21.424Z,59040.00
2022-08-04T11:12:21.471Z,59328.00
2022-08-04T11:13:22.070Z,57664.00
2022-08-04T11:14:21.552Z,57312.00
2022-08-04T11:15:21.595Z,60128.00
2022-08-04T11:16:21.644Z,60704.00
2022-08-04T11:17:21.861Z,60480.00
2022-08-04T11:18:21.725Z,60320.00
2022-08-04T11:19:21.766Z,60384.00
2022-08-04T11:20:36.954Z,59808.00
2022-08-04T11:21:21.854Z,59456.00
2022-08-04T11:22:21.898Z,57408.00
2022-08-04T11:23:21.943Z,58400.00
2022-08-04T11:24:21.987Z,58080.00
2022-08-04T11:25:22.029Z,55968.00
2022-08-04T11:26:22.073Z,54496.00
2022-08-04T11:27:22.357Z,52800.00
2022-08-04T11:28:22.159Z,53376.00
2022-08-04T11:29:22.204Z,52832.00
2022-08-04T11:30:22.249Z,53088.00
2022-08-04T11:31:22.289Z,50112.00
2022-08-04T11:32:22.332Z,49632.00
2022-08-04T11:33:22.383Z,48320.00
2022-08-04T11:34:22.435Z,48736.00
2022-08-04T11:35:22.469Z,50336.00
2022-08-04T11:36:22.510Z,47232.00
2022-08-04T11:37:22.657Z,50656.00
2022-08-04T11:38:24.111Z,50304.00
2022-08-04T11:39:22.705Z,50464.00
2022-08-04T11:40:22.682Z,48416.00
2022-08-04T11:41:22.727Z,45856.00
2022-08-04T11:42:22.770Z,44704.00
2022-08-04T11:44:01.195Z,45280.00
2022-08-04T11:44:22.855Z,44960.00
2022-08-04T11:45:22.898Z,41536.00
2022-08-04T11:46:22.944Z,40864.00
2022-08-04T11:47:23.242Z,42688.00
2022-08-04T11:48:23.028Z,42720.00
2022-08-04T11:49:23.077Z,40224.00
2022-08-04T11:50:23.116Z,36896.00
2022-08-04T11:51:23.156Z,35392.00
2022-08-04T11:52:23.199Z,47072.00
2022-08-04T11:53:23.244Z,47552.00
2022-08-04T11:54:23.291Z,52352.00
2022-08-04T11:55:23.328Z,48640.00
2022-08-04T11:56:37.207Z,47136.00
2022-08-04T11:57:25.672Z,44672.00
2022-08-04T11:58:23.456Z,50816.00
2022-08-04T11:59:23.494Z,50528.00
2022-08-04T12:00:23.545Z,45760.00
2022-08-04T12:01:23.579Z,39328.00
2022-08-04T12:02:23.657Z,36608.00
2022-08-04T12:03:23.664Z,44480.00
2022-08-04T12:04:23.709Z,47168.00
2022-08-04T12:05:36.000Z,50656.00
2022-08-04T12:06:23.791Z,53952.00
2022-08-04T12:07:40.606Z,52896.00
2022-08-04T12:08:23.876Z,51136.00
2022-08-04T12:09:23.917Z,53888.00
2022-08-04T12:10:40.963Z,52768.00
2022-08-04T12:11:24.001Z,54624.00
2022-08-04T12:12:24.042Z,50848.00
2022-08-04T12:13:24.086Z,46816.00
2022-08-04T12:14:24.130Z,47040.00